LDPL/PUY METAR and TAF weather

Enter ICAO airport designator
Station Type Date Time Source
LDPL METAR 2022/11/27 07:30 UTC NOAA

LDPL 270730Z 07016KT CAVOK 10/02 Q1027 NOSIG


Station Type Date Time Source
LDPL Decoded METAR 2022/11/27 07:30 UTC NOAA

Pula Aerodrome, Croatia (LDPL) 45-54N 013-55E 63M
Nov 27, 2022 - 02:30 AM EST / 2022.11.27 0730 UTC
Wind: from the ENE (070 degrees) at 18 MPH (16 KT):0
Visibility: greater than 7 mile(s):0
Temperature: 50 F (10 C)
Dew Point: 35 F (2 C)
Relative Humidity: 57%
Pressure (altimeter): 30.33 in. Hg (1027 hPa)
ob: LDPL 270730Z 07016KT CAVOK 10/02 Q1027 NOSIG
cycle: 7

Station Type Date Time Source
LDPL TAF 2022/11/27 06:27 UTC NOAA

TAF LDPL 270525Z 2706/2806 07007KT CAVOK TX12/2712Z TN04/2804Z
TEMPO 2706/2714 07014KT

Example: see airport list